BEL556 EGJJ-EBCI
Flight info
| Callsign | BEL556 |
|---|---|
| Flight time | N/A |
| Altitude | 21000 |
| Route | LUSIT DCT USAPI DCT CMB |
| Aircraft | B463/M-SDFGIRWY/LB1 |
Departure
| Time | 2026-05-07 17:43 |
|---|---|
| Airport | Jersey Airport (EGJJ) |
Arrival
| Time | N/A |
|---|---|
| Airport | Brussels South Charleroi Airport (EBCI) |
| Time | Latitude | Longitude | Altitude | Speed | Heading |
|---|---|---|---|---|---|
| 2026-05-07 17:28 | 49.20550 | -2.19805 | 280 ft | 0 kts | 175° |
| 2026-05-07 17:36 | 49.20550 | -2.19806 | 280 ft | 0 kts | 175° |
| 2026-05-07 17:36 | 49.20551 | -2.19806 | 280 ft | 0 kts | 175° |
| 2026-05-07 17:37 | 49.20563 | -2.19807 | 280 ft | 2 kts | 175° |
| 2026-05-07 17:37 | 49.20579 | -2.19809 | 280 ft | 2 kts | 175° |
| 2026-05-07 17:37 | 49.20595 | -2.19811 | 280 ft | 2 kts | 175° |
| 2026-05-07 17:37 | 49.20604 | -2.19813 | 280 ft | 0 kts | 175° |
| 2026-05-07 17:39 | 49.20599 | -2.19817 | 280 ft | 4 kts | 221° |
| 2026-05-07 17:39 | 49.20595 | -2.19846 | 280 ft | 3 kts | 271° |
| 2026-05-07 17:39 | 49.20596 | -2.19872 | 280 ft | 5 kts | 275° |
| 2026-05-07 17:40 | 49.20587 | -2.19909 | 280 ft | 3 kts | 225° |
| 2026-05-07 17:40 | 49.20541 | -2.19930 | 280 ft | 10 kts | 200° |
| 2026-05-07 17:40 | 49.20521 | -2.20015 | 280 ft | 12 kts | 286° |
| 2026-05-07 17:40 | 49.20532 | -2.20057 | 280 ft | 6 kts | 308° |
| 2026-05-07 17:41 | 49.20549 | -2.20105 | 280 ft | 7 kts | 283° |
| 2026-05-07 17:41 | 49.20567 | -2.20214 | 282 ft | 15 kts | 283° |
| 2026-05-07 17:41 | 49.20599 | -2.20396 | 280 ft | 15 kts | 286° |
| 2026-05-07 17:41 | 49.20617 | -2.20495 | 280 ft | 0 kts | 284° |
| 2026-05-07 17:42 | 49.20622 | -2.20529 | 280 ft | 8 kts | 282° |
| 2026-05-07 17:42 | 49.20633 | -2.20663 | 280 ft | 14 kts | 297° |
| 2026-05-07 17:42 | 49.20711 | -2.20647 | 279 ft | 13 kts | 75° |
| 2026-05-07 17:42 | 49.20714 | -2.20604 | 279 ft | 5 kts | 85° |
| 2026-05-07 17:43 | 49.20743 | -2.20218 | 280 ft | 75 kts | 83° |
| 2026-05-07 17:43 | 49.20837 | -2.19072 | 296 ft | 138 kts | 83° |
| 2026-05-07 17:43 | 49.20957 | -2.17578 | 863 ft | 144 kts | 82° |
| 2026-05-07 17:43 | 49.21122 | -2.15968 | 1376 ft | 165 kts | 82° |
| 2026-05-07 17:44 | 49.21195 | -2.14033 | 1656 ft | 190 kts | 92° |
| 2026-05-07 17:44 | 49.21156 | -2.12071 | 2663 ft | 181 kts | 95° |
| 2026-05-07 17:44 | 49.21105 | -2.10112 | 3502 ft | 194 kts | 95° |
| 2026-05-07 17:44 | 49.21069 | -2.08012 | 4502 ft | 193 kts | 94° |
| 2026-05-07 17:45 | 49.21061 | -2.06040 | 5662 ft | 183 kts | 94° |
| 2026-05-07 17:45 | 49.21057 | -2.04143 | 6655 ft | 177 kts | 95° |
| 2026-05-07 17:45 | 49.21054 | -2.02239 | 7420 ft | 179 kts | 95° |
| 2026-05-07 17:45 | 49.21053 | -2.00315 | 8134 ft | 182 kts | 94° |
| 2026-05-07 17:46 | 49.21061 | -1.98358 | 8845 ft | 186 kts | 94° |
| 2026-05-07 17:46 | 49.21086 | -1.96363 | 9548 ft | 189 kts | 94° |
| 2026-05-07 17:46 | 49.21105 | -1.94331 | 10200 ft | 192 kts | 94° |
| 2026-05-07 17:46 | 49.21128 | -1.92269 | 10812 ft | 196 kts | 93° |
| 2026-05-07 17:47 | 49.21149 | -1.90174 | 11416 ft | 198 kts | 93° |
| 2026-05-07 17:47 | 49.21175 | -1.88049 | 12029 ft | 201 kts | 92° |
| 2026-05-07 17:47 | 49.21200 | -1.85899 | 12623 ft | 204 kts | 91° |
| 2026-05-07 17:47 | 49.21230 | -1.83713 | 13212 ft | 207 kts | 91° |
| 2026-05-07 17:48 | 49.21259 | -1.81491 | 13797 ft | 210 kts | 91° |
| 2026-05-07 17:48 | 49.21422 | -1.79263 | 14300 ft | 213 kts | 75° |
| 2026-05-07 17:48 | 49.21871 | -1.77092 | 14815 ft | 215 kts | 72° |
| 2026-05-07 17:48 | 49.22359 | -1.74962 | 15339 ft | 216 kts | 71° |
| 2026-05-07 17:49 | 49.22887 | -1.72803 | 15846 ft | 218 kts | 71° |
| 2026-05-07 17:49 | 49.23421 | -1.70628 | 16340 ft | 220 kts | 71° |
| 2026-05-07 17:49 | 49.23969 | -1.68430 | 16824 ft | 222 kts | 71° |
| 2026-05-07 17:49 | 49.24523 | -1.66210 | 17290 ft | 224 kts | 71° |
| 2026-05-07 17:50 | 49.25075 | -1.63970 | 17784 ft | 226 kts | 71° |
| 2026-05-07 17:50 | 49.25636 | -1.61706 | 18245 ft | 228 kts | 72° |
| 2026-05-07 17:50 | 49.26190 | -1.59423 | 18659 ft | 230 kts | 72° |
| 2026-05-07 17:50 | 49.26748 | -1.57114 | 19062 ft | 232 kts | 72° |
| 2026-05-07 17:51 | 49.27308 | -1.54793 | 19460 ft | 233 kts | 72° |
| 2026-05-07 17:51 | 49.27873 | -1.52459 | 19851 ft | 235 kts | 72° |
| 2026-05-07 17:51 | 49.28445 | -1.50102 | 20244 ft | 236 kts | 72° |
| 2026-05-07 17:51 | 49.29013 | -1.47732 | 20611 ft | 238 kts | 73° |
| 2026-05-07 17:52 | 49.29575 | -1.45334 | 20862 ft | 248 kts | 73° |
| 2026-05-07 17:52 | 49.30174 | -1.42778 | 20975 ft | 263 kts | 72° |
| 2026-05-07 17:52 | 49.30821 | -1.40046 | 21045 ft | 282 kts | 72° |
| 2026-05-07 17:52 | 49.31509 | -1.37134 | 21074 ft | 298 kts | 72° |
| 2026-05-07 17:53 | 49.32228 | -1.34086 | 21080 ft | 310 kts | 72° |
| 2026-05-07 17:53 | 49.32720 | -1.31997 | 21069 ft | 318 kts | 72° |
| 2026-05-07 17:53 | 49.33489 | -1.28753 | 21067 ft | 330 kts | 71° |
| 2026-05-07 17:53 | 49.34569 | -1.24249 | 21062 ft | 343 kts | 71° |
| 2026-05-07 17:54 | 49.35121 | -1.21951 | 21055 ft | 349 kts | 71° |
| 2026-05-07 17:54 | 49.35971 | -1.18405 | 21049 ft | 358 kts | 71° |
| 2026-05-07 17:54 | 49.36826 | -1.14768 | 21040 ft | 367 kts | 72° |
| 2026-05-07 17:54 | 49.37688 | -1.11023 | 21032 ft | 376 kts | 71° |
| 2026-05-07 17:55 | 49.38584 | -1.07208 | 21028 ft | 384 kts | 71° |
| 2026-05-07 17:55 | 49.39501 | -1.03327 | 21030 ft | 391 kts | 71° |
| 2026-05-07 17:55 | 49.40410 | -0.99359 | 21024 ft | 394 kts | 72° |
| 2026-05-07 17:55 | 49.41324 | -0.95381 | 21012 ft | 395 kts | 71° |
| 2026-05-07 17:56 | 49.42259 | -0.91414 | 21010 ft | 395 kts | 71° |
| 2026-05-07 17:56 | 49.43182 | -0.87425 | 21005 ft | 396 kts | 71° |
| 2026-05-07 17:56 | 49.44103 | -0.83439 | 21009 ft | 396 kts | 71° |
| 2026-05-07 17:56 | 49.45034 | -0.79459 | 21015 ft | 396 kts | 71° |
| 2026-05-07 17:57 | 49.45961 | -0.75469 | 21012 ft | 396 kts | 71° |
| 2026-05-07 17:57 | 49.46866 | -0.71465 | 21014 ft | 397 kts | 72° |
| 2026-05-07 17:57 | 49.47770 | -0.67462 | 21018 ft | 397 kts | 71° |
| 2026-05-07 17:57 | 49.48697 | -0.63464 | 21017 ft | 397 kts | 71° |
| 2026-05-07 17:58 | 49.49616 | -0.59459 | 21019 ft | 397 kts | 72° |
| 2026-05-07 17:58 | 49.50517 | -0.55440 | 21022 ft | 397 kts | 72° |
| 2026-05-07 17:58 | 49.51408 | -0.51475 | 21023 ft | 397 kts | 71° |
| 2026-05-07 17:58 | 49.52333 | -0.47468 | 21034 ft | 397 kts | 71° |
| 2026-05-07 17:59 | 49.53243 | -0.43458 | 21046 ft | 397 kts | 72° |
| 2026-05-07 17:59 | 49.54137 | -0.39446 | 21048 ft | 398 kts | 72° |
| 2026-05-07 17:59 | 49.55057 | -0.35409 | 21060 ft | 398 kts | 71° |
| 2026-05-07 17:59 | 49.55967 | -0.31389 | 21065 ft | 398 kts | 72° |
| 2026-05-07 18:00 | 49.56865 | -0.27343 | 21068 ft | 398 kts | 72° |
| 2026-05-07 18:00 | 49.57754 | -0.23327 | 21072 ft | 398 kts | 72° |
| 2026-05-07 18:00 | 49.58661 | -0.19290 | 21077 ft | 398 kts | 71° |
| 2026-05-07 18:00 | 49.59576 | -0.15274 | 21084 ft | 398 kts | 72° |
| 2026-05-07 18:01 | 49.60475 | -0.11222 | 21087 ft | 398 kts | 72° |
| 2026-05-07 18:01 | 49.61368 | -0.07182 | 21097 ft | 398 kts | 72° |
| 2026-05-07 18:01 | 49.62257 | -0.03141 | 21103 ft | 397 kts | 72° |
| 2026-05-07 18:01 | 49.63149 | 0.00889 | 21090 ft | 395 kts | 72° |
| 2026-05-07 18:02 | 49.64941 | 0.08860 | 21072 ft | 392 kts | 72° |
| 2026-05-07 18:02 | 49.65820 | 0.12853 | 21060 ft | 391 kts | 72° |
| 2026-05-07 18:02 | 49.66692 | 0.16827 | 21047 ft | 390 kts | 72° |